createdAt,value
2023-02-15T00:01:14.634Z,14.57
2023-02-15T00:03:42.703Z,15.50
2023-02-15T00:06:10.837Z,14.70
2023-02-15T00:08:40.423Z,16.13
2023-02-15T00:11:09.098Z,16.73
2023-02-15T00:13:39.807Z,15.90
2023-02-15T00:16:10.129Z,15.00
2023-02-15T00:18:38.359Z,16.27
2023-02-15T00:21:08.588Z,14.43
2023-02-15T00:23:37.454Z,15.83
2023-02-15T00:26:08.459Z,15.43
2023-02-15T00:28:36.589Z,15.23
2023-02-15T00:31:06.991Z,14.70
2023-02-15T00:33:37.701Z,16.27
2023-02-15T00:36:07.109Z,14.73
2023-02-15T00:38:35.881Z,16.73
2023-02-15T00:41:08.176Z,16.10
2023-02-15T00:43:37.253Z,15.13
2023-02-15T00:46:06.741Z,16.33
2023-02-15T00:48:35.082Z,16.20
2023-02-15T00:51:03.558Z,16.13
2023-02-15T00:53:32.056Z,15.73
2023-02-15T00:56:02.135Z,17.30
2023-02-15T00:58:31.784Z,17.23
2023-02-15T01:01:06.002Z,17.60
2023-02-15T01:03:34.689Z,18.03
2023-02-15T01:06:05.218Z,16.23
2023-02-15T01:08:33.516Z,16.97
2023-02-15T01:11:05.736Z,16.20
2023-02-15T01:13:36.114Z,15.80
2023-02-15T01:16:05.575Z,16.63
2023-02-15T01:18:34.273Z,16.07
2023-02-15T01:21:02.411Z,17.63
2023-02-15T01:23:30.549Z,16.43
2023-02-15T01:26:03.709Z,16.97
2023-02-15T01:28:32.039Z,16.27
2023-02-15T01:31:01.801Z,17.57
2023-02-15T01:33:29.962Z,17.33
2023-02-15T01:36:01.400Z,16.37
2023-02-15T01:38:29.725Z,15.57
2023-02-15T01:41:18.887Z,16.27
2023-02-15T01:43:49.368Z,17.50
2023-02-15T01:46:21.592Z,16.83
2023-02-15T01:48:54.687Z,16.83
2023-02-15T01:51:25.770Z,16.63
2023-02-15T01:53:58.299Z,17.87
2023-02-15T01:56:30.010Z,17.03
2023-02-15T01:59:02.145Z,17.03
2023-02-15T02:01:31.757Z,16.63
2023-02-15T02:04:08.114Z,17.23
2023-02-15T02:06:38.982Z,17.13
2023-02-15T02:09:08.508Z,17.47
2023-02-15T02:11:37.304Z,16.20
2023-02-15T02:14:05.650Z,17.43
2023-02-15T02:16:45.684Z,16.27
2023-02-15T02:19:56.561Z,16.60
2023-02-15T02:22:53.479Z,16.87
2023-02-15T02:25:41.320Z,16.33
2023-02-15T02:28:26.184Z,17.40
2023-02-15T02:31:21.147Z,16.90
2023-02-15T02:34:03.240Z,16.40
2023-02-15T02:36:41.473Z,16.67
2023-02-15T02:39:21.467Z,15.90
2023-02-15T02:41:57.590Z,16.73
2023-02-15T02:44:29.319Z,17.43
2023-02-15T02:47:01.705Z,16.43
2023-02-15T02:49:37.400Z,16.73
2023-02-15T02:52:08.088Z,16.57
2023-02-15T02:54:38.108Z,15.77
2023-02-15T02:57:11.080Z,16.30
2023-02-15T02:59:43.675Z,16.27
2023-02-15T03:02:15.628Z,17.53
2023-02-15T03:04:51.295Z,17.20
2023-02-15T03:07:23.229Z,16.60
2023-02-15T03:09:55.545Z,17.13
2023-02-15T03:12:26.629Z,16.03
2023-02-15T03:15:03.756Z,17.60
2023-02-15T03:17:35.333Z,15.97
2023-02-15T03:20:09.170Z,16.33
2023-02-15T03:22:41.867Z,15.00
2023-02-15T03:25:17.818Z,17.47
2023-02-15T03:27:49.639Z,17.67
2023-02-15T03:30:22.889Z,17.67
2023-02-15T03:32:53.323Z,18.07
2023-02-15T03:35:29.178Z,17.07
2023-02-15T03:38:01.707Z,17.53
2023-02-15T03:41:00.317Z,15.23
2023-02-15T03:43:34.808Z,17.80
2023-02-15T03:46:10.126Z,15.97
2023-02-15T03:48:42.579Z,16.97
2023-02-15T03:51:33.915Z,15.47
2023-02-15T03:54:03.789Z,17.40
2023-02-15T03:56:32.415Z,16.63
2023-02-15T03:59:18.197Z,15.23
2023-02-15T04:02:01.521Z,17.23
2023-02-15T04:04:35.006Z,15.97
2023-02-15T04:07:06.266Z,16.20
2023-02-15T04:09:51.554Z,16.10
2023-02-15T04:12:20.030Z,15.00
2023-02-15T04:15:05.203Z,15.90
2023-02-15T04:17:33.325Z,16.30
2023-02-15T04:20:18.711Z,15.13
2023-02-15T04:23:05.540Z,17.63
2023-02-15T04:25:33.737Z,16.40
2023-02-15T04:28:01.852Z,16.80
2023-02-15T04:30:30.005Z,15.33
2023-02-15T04:32:58.731Z,18.50
2023-02-15T04:35:26.888Z,17.93
2023-02-15T04:37:56.916Z,18.07
2023-02-15T04:40:25.045Z,17.17
2023-02-15T04:42:53.148Z,15.70
2023-02-15T04:45:21.305Z,16.67
2023-02-15T04:47:49.528Z,16.47
2023-02-15T04:50:17.907Z,15.97
2023-02-15T04:52:46.731Z,18.00
2023-02-15T04:55:16.386Z,15.50
2023-02-15T04:57:44.483Z,16.30
2023-02-15T05:00:13.388Z,16.90
2023-02-15T05:02:41.533Z,17.87
2023-02-15T05:05:10.584Z,18.37
2023-02-15T05:07:38.734Z,18.17
2023-02-15T05:10:07.932Z,17.03
2023-02-15T05:12:39.890Z,16.00
2023-02-15T05:15:08.405Z,17.23
2023-02-15T05:17:36.535Z,18.73
2023-02-15T05:20:05.639Z,17.17
2023-02-15T05:22:33.726Z,16.33
2023-02-15T05:25:19.457Z,17.93
2023-02-15T05:28:06.337Z,18.97
2023-02-15T05:30:34.646Z,15.87
2023-02-15T05:33:03.061Z,17.20
2023-02-15T05:35:31.194Z,17.97
2023-02-15T05:37:59.288Z,17.43
2023-02-15T05:40:27.611Z,17.53
2023-02-15T05:42:58.406Z,16.53
2023-02-15T05:45:27.018Z,18.87
2023-02-15T05:47:56.086Z,17.27
2023-02-15T05:50:24.255Z,18.63
2023-02-15T05:52:52.657Z,18.77
2023-02-15T05:55:20.958Z,18.63
2023-02-15T05:57:49.264Z,16.13
2023-02-15T06:00:19.832Z,17.07
2023-02-15T06:02:48.089Z,18.20
2023-02-15T06:05:16.329Z,17.20
2023-02-15T06:07:45.833Z,17.93
2023-02-15T06:10:14.122Z,16.13
2023-02-15T06:12:42.316Z,15.63
2023-02-15T06:15:11.202Z,17.13
2023-02-15T06:17:43.564Z,16.87
2023-02-15T06:20:12.584Z,15.03
2023-02-15T06:22:40.678Z,15.57
2023-02-15T06:25:10.964Z,16.60
2023-02-15T06:27:39.140Z,16.47
2023-02-15T06:30:08.590Z,16.73
2023-02-15T06:32:37.197Z,16.30
2023-02-15T06:35:07.611Z,16.60
2023-02-15T06:37:35.934Z,15.63
2023-02-15T06:40:05.153Z,16.10
2023-02-15T06:42:33.324Z,15.63
2023-02-15T06:45:01.624Z,14.83
2023-02-15T06:47:29.834Z,16.23
2023-02-15T06:49:58.645Z,14.37
2023-02-15T06:52:29.414Z,15.03
2023-02-15T06:54:57.716Z,15.23
2023-02-15T06:57:25.844Z,14.73
2023-02-15T06:59:54.350Z,14.03
2023-02-15T07:02:22.410Z,14.43
2023-02-15T07:04:50.661Z,14.43
2023-02-15T07:07:18.919Z,14.87
2023-02-15T07:09:48.387Z,13.90
2023-02-15T07:12:34.328Z,14.40
2023-02-15T07:15:02.671Z,14.47
2023-02-15T07:17:35.924Z,14.40
2023-02-15T07:20:05.713Z,13.67
2023-02-15T07:22:35.209Z,17.20
2023-02-15T07:25:05.094Z,16.73
2023-02-15T07:27:33.642Z,16.93
2023-02-15T07:30:02.204Z,15.93
2023-02-15T07:32:33.061Z,15.47
2023-02-15T07:35:01.954Z,16.63
2023-02-15T07:37:30.603Z,18.23
2023-02-15T07:39:58.903Z,17.13
2023-02-15T07:42:28.430Z,17.53
2023-02-15T07:44:57.329Z,16.47
2023-02-15T07:47:25.424Z,16.60
2023-02-15T07:49:53.525Z,17.43
2023-02-15T07:52:21.589Z,17.53
2023-02-15T07:54:49.799Z,16.10
2023-02-15T07:57:17.906Z,17.07
2023-02-15T07:59:47.479Z,16.70
2023-02-15T08:02:17.545Z,17.27
2023-02-15T08:04:46.504Z,17.50
2023-02-15T08:07:14.593Z,18.83
2023-02-15T08:09:42.706Z,19.00
2023-02-15T08:12:10.778Z,18.90
2023-02-15T08:14:38.885Z,20.13
2023-02-15T08:17:08.375Z,19.57
2023-02-15T08:19:36.774Z,19.90
2023-02-15T08:22:07.245Z,18.93
2023-02-15T08:24:38.346Z,18.87
2023-02-15T08:27:07.418Z,17.77
2023-02-15T08:29:37.646Z,17.83
2023-02-15T08:32:10.348Z,17.63
2023-02-15T08:34:41.200Z,18.83
2023-02-15T08:37:10.420Z,19.13
2023-02-15T08:39:38.734Z,18.90
2023-02-15T08:42:06.867Z,16.53
2023-02-15T08:44:34.953Z,17.40
2023-02-15T08:47:05.110Z,18.30
2023-02-15T08:49:34.739Z,18.53
2023-02-15T08:52:02.824Z,19.27
2023-02-15T08:54:31.272Z,17.77
2023-02-15T08:56:59.897Z,18.67
2023-02-15T08:59:28.362Z,17.43
2023-02-15T09:01:57.003Z,17.57
2023-02-15T09:04:25.462Z,16.83
2023-02-15T09:06:56.261Z,18.13
2023-02-15T09:09:24.424Z,16.73
2023-02-15T09:11:58.801Z,17.03
2023-02-15T09:14:28.941Z,16.80
2023-02-15T09:16:57.596Z,19.00
2023-02-15T09:19:26.522Z,15.70
2023-02-15T09:21:56.222Z,17.53
2023-02-15T09:24:24.478Z,18.07
2023-02-15T09:26:52.566Z,18.07
2023-02-15T09:29:21.777Z,18.70
2023-02-15T09:31:51.507Z,17.53
2023-02-15T09:34:22.520Z,18.00
2023-02-15T09:36:52.003Z,17.57
2023-02-15T09:39:24.719Z,17.23
2023-02-15T09:42:07.904Z,19.27
2023-02-15T09:44:52.533Z,18.37
2023-02-15T09:47:33.605Z,19.00
2023-02-15T09:50:08.490Z,18.60
2023-02-15T09:52:49.938Z,18.30
2023-02-15T09:55:46.291Z,19.47
2023-02-15T09:58:22.489Z,18.17
2023-02-15T10:01:01.469Z,18.97
2023-02-15T10:03:44.620Z,19.00
2023-02-15T10:06:34.078Z,16.53
2023-02-15T10:09:12.607Z,17.23
2023-02-15T10:11:57.352Z,17.37
2023-02-15T10:14:45.594Z,17.60
2023-02-15T10:17:27.024Z,18.27
2023-02-15T10:20:12.209Z,17.03
2023-02-15T10:22:54.384Z,17.63
2023-02-15T10:25:33.406Z,17.23
2023-02-15T10:28:08.058Z,17.27
2023-02-15T10:30:45.944Z,16.87
2023-02-15T10:33:29.982Z,17.90
2023-02-15T10:36:11.361Z,18.37
2023-02-15T10:38:44.238Z,18.40
2023-02-15T10:41:28.758Z,18.00
2023-02-15T10:44:22.029Z,18.50
2023-02-15T10:47:19.496Z,18.40
2023-02-15T10:50:02.312Z,16.23
2023-02-15T10:52:41.361Z,15.70
2023-02-15T10:55:18.896Z,18.07
2023-02-15T10:57:59.268Z,17.03
2023-02-15T11:00:39.480Z,17.80
2023-02-15T11:03:26.442Z,17.70
2023-02-15T11:06:05.183Z,17.43
2023-02-15T11:08:37.725Z,16.63
2023-02-15T11:11:10.098Z,18.63
2023-02-15T11:13:44.686Z,17.20
2023-02-15T11:16:18.996Z,17.80
2023-02-15T11:18:53.703Z,16.27
2023-02-15T11:21:25.172Z,18.70
2023-02-15T11:23:54.173Z,18.60
2023-02-15T11:26:29.367Z,18.53
2023-02-15T11:29:01.722Z,19.60
2023-02-15T11:31:44.709Z,18.70
2023-02-15T11:34:21.013Z,17.70
2023-02-15T11:36:52.473Z,18.50
2023-02-15T11:39:22.905Z,19.37
2023-02-15T11:41:55.413Z,18.30
2023-02-15T11:44:27.423Z,19.07
2023-02-15T11:46:56.961Z,18.17
2023-02-15T11:49:29.603Z,18.07
2023-02-15T11:51:59.195Z,18.10
2023-02-15T11:54:31.579Z,19.37
2023-02-15T11:57:05.749Z,18.00
2023-02-15T11:59:38.916Z,18.43
2023-02-15T12:02:18.608Z,18.57
2023-02-15T12:04:53.182Z,19.97
2023-02-15T12:07:26.751Z,18.63
2023-02-15T12:10:01.665Z,18.67
2023-02-15T12:12:31.611Z,19.33
2023-02-15T12:15:01.295Z,19.70
2023-02-15T12:17:34.861Z,20.05
2023-02-15T12:20:05.428Z,20.42
2023-02-15T12:22:37.324Z,19.70
2023-02-15T12:25:22.268Z,21.17
2023-02-15T12:27:50.801Z,20.75
2023-02-15T12:30:24.103Z,20.73
2023-02-15T12:32:55.871Z,20.63
2023-02-15T12:35:30.684Z,20.98
2023-02-15T12:38:02.676Z,22.75
2023-02-15T12:40:31.810Z,22.48
2023-02-15T12:43:00.002Z,22.17
2023-02-15T12:45:30.284Z,20.33
2023-02-15T12:48:18.624Z,20.45
2023-02-15T12:50:54.674Z,21.67
2023-02-15T12:53:31.987Z,20.55
2023-02-15T12:56:01.525Z,21.08
2023-02-15T12:58:31.296Z,19.73
2023-02-15T13:01:14.636Z,21.05
2023-02-15T13:03:58.493Z,20.20
2023-02-15T13:06:28.091Z,18.98
2023-02-15T13:08:58.335Z,21.77
2023-02-15T13:11:35.038Z,21.25
2023-02-15T13:14:05.214Z,21.05
2023-02-15T13:16:36.453Z,21.15
2023-02-15T13:19:13.041Z,20.67
2023-02-15T13:21:45.514Z,20.33
2023-02-15T13:24:22.159Z,20.70
2023-02-15T13:26:50.912Z,19.73
2023-02-15T13:29:25.942Z,19.33
2023-02-15T13:31:56.968Z,20.38
2023-02-15T13:34:30.663Z,19.63
2023-02-15T13:37:06.677Z,20.10
2023-02-15T13:39:41.865Z,21.63
2023-02-15T13:42:25.095Z,20.88
2023-02-15T13:45:09.915Z,18.33
2023-02-15T13:47:49.107Z,21.42
2023-02-15T13:50:33.964Z,20.58
2023-02-15T13:53:18.700Z,19.38
2023-02-15T13:55:52.777Z,19.73
2023-02-15T13:58:49.104Z,21.23
2023-02-15T14:01:25.455Z,19.05
2023-02-15T14:04:13.021Z,19.53
2023-02-15T14:06:52.656Z,18.10
2023-02-15T14:09:34.440Z,18.80
2023-02-15T14:12:22.631Z,19.47
2023-02-15T14:15:16.683Z,19.87
2023-02-15T14:17:55.422Z,18.53
2023-02-15T14:20:32.183Z,19.93
2023-02-15T14:23:13.092Z,18.90
2023-02-15T14:25:46.828Z,18.03
2023-02-15T14:28:22.990Z,18.27
2023-02-15T14:30:53.840Z,18.60
2023-02-15T14:33:35.731Z,16.70
2023-02-15T14:36:07.399Z,19.00
2023-02-15T14:38:59.392Z,17.67
2023-02-15T14:41:33.250Z,17.77
2023-02-15T14:44:10.784Z,19.03
2023-02-15T14:46:44.606Z,18.33
2023-02-15T14:49:15.110Z,18.80
2023-02-15T14:52:14.074Z,17.50
2023-02-15T14:55:02.625Z,19.30
2023-02-15T14:57:36.430Z,19.63
2023-02-15T15:00:36.124Z,18.53
2023-02-15T15:03:12.152Z,18.27
2023-02-15T15:05:52.658Z,18.67
2023-02-15T15:08:30.172Z,17.83
2023-02-15T15:11:44.026Z,18.20
2023-02-15T15:14:33.616Z,18.47
2023-02-15T15:17:02.960Z,18.07
2023-02-15T15:20:14.566Z,19.13
2023-02-15T15:22:44.235Z,16.67
2023-02-15T15:25:35.163Z,16.73
2023-02-15T15:28:05.670Z,18.70
2023-02-15T15:30:51.462Z,17.93
2023-02-15T15:34:00.537Z,19.00
2023-02-15T15:37:01.941Z,16.87
2023-02-15T15:40:08.731Z,19.50
2023-02-15T15:42:52.126Z,18.23
2023-02-15T15:45:54.814Z,20.60
2023-02-15T15:48:32.837Z,19.80
2023-02-15T15:51:03.638Z,20.53
2023-02-15T15:53:36.978Z,18.80
2023-02-15T15:56:11.439Z,19.53
2023-02-15T15:58:47.242Z,18.27
2023-02-15T16:01:17.486Z,20.13
2023-02-15T16:03:53.266Z,20.33
2023-02-15T16:06:36.944Z,22.47
2023-02-15T16:09:19.185Z,21.60
2023-02-15T16:11:50.750Z,21.87
2023-02-15T16:14:27.998Z,20.23
2023-02-15T16:17:00.811Z,21.40
2023-02-15T16:19:32.659Z,21.63
2023-02-15T16:22:03.809Z,20.07
2023-02-15T16:25:11.819Z,20.37
2023-02-15T16:27:42.690Z,19.73
2023-02-15T16:30:27.671Z,20.00
2023-02-15T16:33:06.476Z,21.20
2023-02-15T16:35:36.903Z,21.37
2023-02-15T16:38:06.648Z,19.60
2023-02-15T16:40:44.908Z,18.10
2023-02-15T16:43:19.127Z,20.57
2023-02-15T16:45:50.888Z,19.30
2023-02-15T16:48:26.676Z,18.67
2023-02-15T16:50:58.919Z,18.57
2023-02-15T16:53:29.504Z,20.77
2023-02-15T16:56:02.728Z,20.97
2023-02-15T16:58:39.422Z,18.93
2023-02-15T17:01:11.649Z,21.17
2023-02-15T17:03:44.013Z,20.50
2023-02-15T17:06:23.739Z,21.00
2023-02-15T17:08:53.503Z,20.40
2023-02-15T17:11:24.617Z,20.27
2023-02-15T17:14:25.607Z,22.03
2023-02-15T17:17:01.701Z,20.70
2023-02-15T17:19:34.782Z,22.73
2023-02-15T17:22:08.144Z,21.47
2023-02-15T17:24:41.412Z,23.60
2023-02-15T17:27:17.223Z,22.93
2023-02-15T17:29:49.761Z,22.63
2023-02-15T17:32:23.960Z,24.03
2023-02-15T17:35:04.866Z,22.50
2023-02-15T17:37:45.953Z,23.07
2023-02-15T17:40:26.635Z,21.43
2023-02-15T17:42:58.157Z,23.40
2023-02-15T17:45:34.852Z,21.37
2023-02-15T17:48:07.706Z,21.07
2023-02-15T17:50:42.863Z,21.63
2023-02-15T17:53:13.304Z,20.77
2023-02-15T17:55:44.143Z,21.13
2023-02-15T17:58:16.177Z,21.63
2023-02-15T18:01:04.837Z,20.20
2023-02-15T18:04:00.160Z,19.37
2023-02-15T18:06:49.674Z,18.67
2023-02-15T18:09:39.295Z,21.27
2023-02-15T18:12:21.706Z,18.87
2023-02-15T18:14:54.909Z,21.63
2023-02-15T18:17:29.936Z,19.03
2023-02-15T18:20:08.300Z,19.40
2023-02-15T18:22:43.350Z,20.47
2023-02-15T18:25:16.146Z,21.67
2023-02-15T18:27:46.430Z,26.30
2023-02-15T18:30:20.095Z,26.50
2023-02-15T18:32:52.512Z,26.57
2023-02-15T18:35:24.764Z,26.43
2023-02-15T18:37:56.963Z,28.97
2023-02-15T18:40:29.503Z,27.53
2023-02-15T18:43:02.794Z,27.93
2023-02-15T18:45:36.564Z,28.83
2023-02-15T18:48:09.075Z,30.23
2023-02-15T18:50:43.448Z,32.70
2023-02-15T18:53:23.247Z,33.63
2023-02-15T18:55:53.655Z,32.73
2023-02-15T18:58:29.121Z,28.50
2023-02-15T19:01:09.286Z,28.33
2023-02-15T19:03:39.730Z,29.83
2023-02-15T19:06:14.332Z,29.37
2023-02-15T19:08:55.588Z,26.83
2023-02-15T19:11:28.579Z,26.70
2023-02-15T19:13:59.386Z,25.20
2023-02-15T19:16:34.141Z,27.10
2023-02-15T19:19:09.947Z,24.77
2023-02-15T19:21:43.679Z,24.37
2023-02-15T19:24:24.981Z,24.90
2023-02-15T19:26:55.499Z,25.10
2023-02-15T19:29:29.648Z,26.20
2023-02-15T19:32:00.746Z,25.53
2023-02-15T19:34:36.689Z,25.93
2023-02-15T19:37:10.311Z,29.23
2023-02-15T19:39:44.592Z,26.27
2023-02-15T19:42:20.546Z,28.00
2023-02-15T19:44:51.230Z,27.17
2023-02-15T19:47:22.610Z,28.13
2023-02-15T19:50:02.481Z,27.17
2023-02-15T19:52:33.684Z,26.53
2023-02-15T19:55:19.991Z,27.60
2023-02-15T19:57:52.859Z,26.83
2023-02-15T20:00:27.209Z,27.23
2023-02-15T20:03:00.261Z,27.43
2023-02-15T20:05:34.953Z,25.67
2023-02-15T20:08:09.120Z,26.97
2023-02-15T20:10:48.096Z,27.50
2023-02-15T20:13:19.563Z,27.03
2023-02-15T20:15:50.547Z,24.87
2023-02-15T20:18:26.284Z,24.73
2023-02-15T20:20:58.227Z,23.77
2023-02-15T20:23:33.603Z,25.33
2023-02-15T20:26:16.965Z,25.30
2023-02-15T20:28:50.250Z,24.27
2023-02-15T20:31:23.253Z,25.97
2023-02-15T20:33:56.381Z,26.63
2023-02-15T20:36:27.221Z,24.23
2023-02-15T20:38:59.687Z,23.73
2023-02-15T20:41:48.665Z,24.47
2023-02-15T20:44:24.829Z,23.90
2023-02-15T20:46:58.631Z,23.77
2023-02-15T20:49:38.203Z,23.53
2023-02-15T20:52:20.588Z,24.53
2023-02-15T20:54:51.963Z,25.63
2023-02-15T20:57:26.774Z,22.10
2023-02-15T21:00:01.905Z,23.07
2023-02-15T21:02:32.208Z,24.47
2023-02-15T21:05:02.656Z,24.67
2023-02-15T21:07:45.501Z,24.23
2023-02-15T21:10:20.954Z,24.77
2023-02-15T21:12:54.419Z,23.20
2023-02-15T21:15:32.709Z,24.40
2023-02-15T21:18:05.034Z,23.87
2023-02-15T21:20:35.049Z,27.03
2023-02-15T21:23:08.161Z,26.47
2023-02-15T21:25:39.608Z,25.87
2023-02-15T21:28:20.696Z,23.87
2023-02-15T21:30:53.010Z,27.00
2023-02-15T21:33:24.149Z,27.03
2023-02-15T21:35:56.324Z,26.37
2023-02-15T21:38:31.466Z,25.97
2023-02-15T21:41:21.258Z,25.40
2023-02-15T21:44:10.692Z,26.40
2023-02-15T21:46:57.285Z,24.10
2023-02-15T21:49:26.052Z,26.27
2023-02-15T21:52:12.071Z,26.57
2023-02-15T21:54:41.234Z,26.13
2023-02-15T21:57:15.406Z,26.83
2023-02-15T21:59:47.454Z,26.43
2023-02-15T22:02:28.806Z,25.00
2023-02-15T22:04:59.075Z,24.60
2023-02-15T22:07:27.559Z,25.07
2023-02-15T22:09:55.644Z,25.53
2023-02-15T22:12:23.872Z,25.00
2023-02-15T22:14:55.002Z,25.63
2023-02-15T22:17:25.087Z,25.63
2023-02-15T22:19:53.992Z,25.97
2023-02-15T22:22:22.635Z,26.33
2023-02-15T22:24:51.040Z,26.33
2023-02-15T22:27:22.472Z,25.33
2023-02-15T22:29:51.587Z,25.67
2023-02-15T22:32:23.342Z,26.30
2023-02-15T22:34:52.381Z,24.83
2023-02-15T22:37:20.784Z,24.27
2023-02-15T22:39:49.048Z,25.93
2023-02-15T22:42:25.254Z,25.70
2023-02-15T22:44:55.416Z,25.40
2023-02-15T22:47:27.334Z,24.10
2023-02-15T22:49:56.173Z,25.47
2023-02-15T22:52:24.678Z,24.97
2023-02-15T22:54:52.768Z,24.10
2023-02-15T22:57:31.134Z,27.13
2023-02-15T23:00:00.705Z,26.73
2023-02-15T23:02:30.262Z,25.87
2023-02-15T23:04:58.456Z,24.93
2023-02-15T23:07:26.685Z,25.43
2023-02-15T23:09:54.747Z,26.27
2023-02-15T23:12:27.858Z,26.13
2023-02-15T23:14:57.960Z,24.77
2023-02-15T23:17:26.164Z,25.57
2023-02-15T23:19:55.606Z,26.43
2023-02-15T23:22:24.105Z,25.23
2023-02-15T23:24:54.244Z,26.43
2023-02-15T23:27:39.820Z,25.63
2023-02-15T23:30:15.198Z,25.63
2023-02-15T23:32:43.321Z,25.27
2023-02-15T23:35:16.815Z,24.50
2023-02-15T23:37:45.153Z,23.90
2023-02-15T23:40:32.958Z,25.60
2023-02-15T23:43:01.426Z,26.33
2023-02-15T23:45:29.874Z,27.20
2023-02-15T23:48:15.130Z,26.30
2023-02-15T23:50:44.724Z,25.87
2023-02-15T23:53:12.777Z,24.77
2023-02-15T23:55:44.301Z,25.43
2023-02-15T23:58:17.418Z,27.00
